CheckWX is a tool to help pilots better visualize weather data.  It is not intended as a substitute for an official pre-flight weather briefing.

20:51:36 UTC

KAVP TAF
Wilkes-Barre / Scranton International Airport
Wilkes-Barre/Scranton, Pennsylvania, USA
KAVP 161727Z 1618/1718 24007KT P6SM OVC040 FM170000 31005KT P6SM OVC015 FM171400 VRB03KT P6SM BKN025

Jun-16@
18:00 UTC

Jun-16 @ 18:00 UTC

Jun-17@
00:00 UTC

Jun-17 @ 00:00 UTC

KAVP 161727Z 1618/1718 24007KT P6SM OVC040
Wind
  • 240° at 7 KTS
Cloud Levels
  • Overcast at 4,000' AGL

Jun-17@
00:00 UTC

Jun-17 @ 00:00 UTC

Jun-17@
14:00 UTC

Jun-17 @ 14:00 UTC

FM170000 31005KT P6SM OVC015

From

From Standard forecast or significant change

Wind
  • 310° at 5 KTS
Cloud Levels
  • Overcast at 1,500' AGL

Jun-17@
14:00 UTC

Jun-17 @ 14:00 UTC

Jun-17@
18:00 UTC

Jun-17 @ 18:00 UTC

FM171400 VRB03KT P6SM BKN025

From

From Standard forecast or significant change

Wind
  • Variable at 3 KTS
Cloud Levels
  • Broken at 2,500' AGL